Time;durP1;ratioP1;P1;durP2;ratioP2;P2;SDS_P1;SDS_P2;PMS_P1;PMS_P2;Temp;Humidity;BMP_temperature;BMP_pressure;BME280_temperature;BME280_humidity;BME280_pressure;Samples;Min_cycle;Max_cycle;Signal;HPM_P1;HPM_P2
2021/12/16 00:34:39;;;;;;;18.63;7.72;;;;;;;;;;4978014;28;20030;-59
2021/12/16 00:37:08;;;;;;;36.55;6.75;;;;;;;;;;4966622;28;21235;-60
2021/12/16 00:39:39;;;;;;;21.00;6.90;;;;;;;;;;4968439;28;20447;-59
2021/12/16 00:42:12;;;;;;;22.45;7.35;;;;;;;;;;4975926;28;20059;-59
2021/12/16 00:49:42;;;;;;;25.48;6.68;;;;;;;;;;4976836;28;20497;-60
2021/12/16 00:55:21;;;;;;;21.67;6.65;;;;;;;;;;4977267;28;20034;-60
2021/12/16 00:57:51;;;;;;;28.75;6.78;;;;;;;;;;4978215;28;20042;-59
2021/12/16 01:00:20;;;;;;;26.45;7.70;;;;;;;;;;4977560;28;20494;-61
2021/12/16 01:47:48;;;;;;;16.20;5.93;;;;;;;;;;4957278;28;20172;-61
2021/12/16 01:50:24;;;;;;;20.83;6.47;;;;;;;;;;5001093;28;20079;-59
2021/12/16 01:55:34;;;;;;;27.13;6.07;;;;;;;;;;5004563;28;20143;-59
2021/12/16 01:58:11;;;;;;;34.33;7.20;;;;;;;;;;5004232;28;20065;-60
2021/12/16 02:00:54;;;;;;;15.38;6.03;;;;;;;;;;5001352;28;21059;-60
2021/12/16 02:03:26;;;;;;;18.85;6.47;;;;;;;;;;5002606;28;20033;-60
2021/12/16 02:08:24;;;;;;;17.67;6.60;;;;;;;;;;4982430;28;20484;-60
2021/12/16 02:11:01;;;;;;;22.92;6.90;;;;;;;;;;4984402;28;20602;-59
2021/12/16 02:13:43;;;;;;;25.90;6.45;;;;;;;;;;4981957;28;20034;-59
2021/12/16 02:36:25;;;;;;;27.38;6.60;;;;;;;;;;4960611;28;20042;-59
2021/12/16 02:38:58;;;;;;;17.02;5.50;;;;;;;;;;4984590;28;20089;-61
2021/12/16 02:41:27;;;;;;;19.60;6.85;;;;;;;;;;4982810;28;20613;-59
2021/12/16 02:50:18;;;;;;;11.73;5.72;;;;;;;;;;4985781;28;20026;-59
2021/12/16 02:52:43;;;;;;;20.73;6.45;;;;;;;;;;4985591;28;20075;-60
2021/12/16 02:55:15;;;;;;;28.48;7.60;;;;;;;;;;4984433;28;20054;-59
2021/12/16 02:57:50;;;;;;;17.08;6.55;;;;;;;;;;4985068;28;20053;-60
2021/12/16 03:00:18;;;;;;;19.02;6.20;;;;;;;;;;4987130;28;20394;-60
2021/12/16 03:02:47;;;;;;;19.20;6.97;;;;;;;;;;4986433;28;20673;-60
2021/12/16 03:05:21;;;;;;;23.77;6.68;;;;;;;;;;4985073;28;20050;-61
2021/12/16 03:07:48;;;;;;;18.08;6.13;;;;;;;;;;4986820;28;20034;-60
2021/12/16 03:18:08;;;;;;;15.80;5.90;;;;;;;;;;4984137;28;20076;-60
2021/12/16 03:38:35;;;;;;;24.45;6.25;;;;;;;;;;4984745;28;20125;-60
2021/12/16 03:41:04;;;;;;;22.23;6.13;;;;;;;;;;4982976;28;20029;-60
2021/12/16 03:43:30;;;;;;;16.00;5.97;;;;;;;;;;4985094;28;20034;-59
2021/12/16 03:48:41;;;;;;;25.48;6.78;;;;;;;;;;4986278;28;20038;-60
2021/12/16 03:51:20;;;;;;;18.45;6.25;;;;;;;;;;4984136;28;20029;-59
2021/12/16 03:53:49;;;;;;;17.15;6.70;;;;;;;;;;4986333;28;20068;-60
2021/12/16 03:56:15;;;;;;;15.20;6.13;;;;;;;;;;4985169;28;20042;-60
2021/12/16 03:58:47;;;;;;;15.48;6.25;;;;;;;;;;5000877;28;20057;-59
2021/12/16 04:01:15;;;;;;;25.65;7.13;;;;;;;;;;4983373;28;20458;-59
2021/12/16 04:03:43;;;;;;;25.08;6.30;;;;;;;;;;4985484;28;20030;-60
2021/12/16 04:06:11;;;;;;;22.88;6.97;;;;;;;;;;4985624;28;20049;-60
2021/12/16 04:08:39;;;;;;;14.98;6.38;;;;;;;;;;5001669;28;20043;-60
2021/12/16 04:11:16;;;;;;;19.08;6.53;;;;;;;;;;4983577;28;20034;-59
2021/12/16 04:13:53;;;;;;;32.72;7.00;;;;;;;;;;4986445;28;20121;-59
2021/12/16 04:16:25;;;;;;;18.13;7.03;;;;;;;;;;4968097;28;20560;-59
2021/12/16 04:18:51;;;;;;;28.23;7.47;;;;;;;;;;4999233;28;20645;-60
2021/12/16 04:21:22;;;;;;;16.13;6.05;;;;;;;;;;4985338;28;20030;-59
2021/12/16 04:23:52;;;;;;;19.20;6.70;;;;;;;;;;4977210;28;20025;-60
2021/12/16 04:26:18;;;;;;;15.82;6.82;;;;;;;;;;5002020;28;20034;-59
2021/12/16 04:28:43;;;;;;;13.80;7.00;;;;;;;;;;4985135;28;20076;-59
2021/12/16 04:31:11;;;;;;;15.82;6.15;;;;;;;;;;4984328;28;20037;-60
2021/12/16 04:33:39;;;;;;;21.88;6.90;;;;;;;;;;4988573;28;20025;-59
2021/12/16 04:36:12;;;;;;;13.38;6.10;;;;;;;;;;4999733;28;20030;-59
2021/12/16 04:38:41;;;;;;;20.33;6.70;;;;;;;;;;4985725;28;20037;-61
2021/12/16 04:41:11;;;;;;;25.00;7.43;;;;;;;;;;4985462;28;20102;-60
2021/12/16 04:43:43;;;;;;;23.52;6.38;;;;;;;;;;4983475;28;20042;-59
2021/12/16 04:46:14;;;;;;;13.30;6.63;;;;;;;;;;4983468;28;20038;-60
2021/12/16 04:48:43;;;;;;;22.50;6.32;;;;;;;;;;4983330;28;20248;-59
2021/12/16 04:51:14;;;;;;;30.83;6.60;;;;;;;;;;4982701;28;20132;-59
2021/12/16 04:53:42;;;;;;;16.63;5.82;;;;;;;;;;4984505;28;20034;-59
2021/12/16 04:56:09;;;;;;;19.65;6.70;;;;;;;;;;4985135;28;20036;-60
2021/12/16 04:58:39;;;;;;;12.07;5.70;;;;;;;;;;4983704;28;22032;-59
2021/12/16 05:01:11;;;;;;;17.40;5.70;;;;;;;;;;4985610;28;20575;-59
2021/12/16 05:03:38;;;;;;;20.77;6.63;;;;;;;;;;4983136;28;20049;-61
2021/12/16 05:06:06;;;;;;;18.20;6.05;;;;;;;;;;4961809;28;20046;-60
2021/12/16 05:08:32;;;;;;;15.95;5.60;;;;;;;;;;4983836;28;20104;-59
2021/12/16 05:11:02;;;;;;;15.95;5.90;;;;;;;;;;4987333;28;20084;-60
2021/12/16 05:13:28;;;;;;;18.85;6.32;;;;;;;;;;4983787;28;20796;-61
2021/12/16 05:15:56;;;;;;;20.00;7.22;;;;;;;;;;4980795;28;20308;-61
2021/12/16 05:18:30;;;;;;;22.77;7.32;;;;;;;;;;4986515;28;21007;-61
2021/12/16 05:21:02;;;;;;;15.75;6.43;;;;;;;;;;4987204;28;20685;-61
2021/12/16 05:28:37;;;;;;;22.02;6.25;;;;;;;;;;4983899;28;20033;-59
2021/12/16 05:31:02;;;;;;;23.77;7.30;;;;;;;;;;4976917;28;20033;-59
2021/12/16 05:33:31;;;;;;;23.38;7.18;;;;;;;;;;4961600;28;20165;-60
2021/12/16 05:35:59;;;;;;;14.40;6.07;;;;;;;;;;4985618;28;20044;-59
2021/12/16 05:38:25;;;;;;;22.55;6.18;;;;;;;;;;4982466;28;20026;-60
2021/12/16 05:40:56;;;;;;;22.27;6.80;;;;;;;;;;4986545;28;20143;-59
2021/12/16 05:43:24;;;;;;;21.45;6.35;;;;;;;;;;4984523;28;20124;-59
2021/12/16 05:45:56;;;;;;;17.77;5.70;;;;;;;;;;4959287;28;20029;-59
2021/12/16 05:48:29;;;;;;;19.27;5.80;;;;;;;;;;4981999;28;20092;-59
2021/12/16 05:50:57;;;;;;;14.07;6.03;;;;;;;;;;4985623;28;20034;-60
2021/12/16 05:53:23;;;;;;;24.88;6.90;;;;;;;;;;4984829;28;20366;-61
2021/12/16 05:55:54;;;;;;;23.50;6.05;;;;;;;;;;4983590;28;20154;-59
2021/12/16 05:58:20;;;;;;;15.02;5.88;;;;;;;;;;4965858;28;20042;-60
2021/12/16 06:00:47;;;;;;;11.55;5.63;;;;;;;;;;4983488;28;20072;-60
2021/12/16 06:03:15;;;;;;;13.90;6.03;;;;;;;;;;4982543;28;20088;-60
2021/12/16 06:05:43;;;;;;;25.85;6.78;;;;;;;;;;4980987;28;20026;-60
2021/12/16 06:08:10;;;;;;;22.42;7.22;;;;;;;;;;4983711;28;20057;-60
2021/12/16 06:13:07;;;;;;;15.85;6.20;;;;;;;;;;4982022;28;20056;-60
2021/12/16 06:27:13;;;;;;;13.57;6.77;;;;;;;;;;4969660;28;20386;-59
2021/12/16 06:29:40;;;;;;;18.05;5.57;;;;;;;;;;4950639;28;20719;-61
2021/12/16 06:32:06;;;;;;;25.08;6.88;;;;;;;;;;4986565;28;20228;-59
2021/12/16 06:34:34;;;;;;;17.80;5.50;;;;;;;;;;4988104;28;20515;-59
2021/12/16 06:40:35;;;;;;;22.35;6.07;;;;;;;;;;4986255;28;20021;-59
2021/12/16 06:43:04;;;;;;;16.13;5.65;;;;;;;;;;4977375;28;20033;-59
2021/12/16 06:45:38;;;;;;;22.02;6.63;;;;;;;;;;4989602;28;20030;-61
2021/12/16 06:48:10;;;;;;;23.02;6.25;;;;;;;;;;5005411;28;20065;-59
2021/12/16 06:53:10;;;;;;;15.43;6.60;;;;;;;;;;4989525;28;20038;-60
2021/12/16 06:58:14;;;;;;;19.05;5.65;;;;;;;;;;4986652;28;20041;-59
2021/12/16 07:00:46;;;;;;;9.55;5.65;;;;;;;;;;4990304;28;20041;-59
2021/12/16 07:03:21;;;;;;;13.52;6.13;;;;;;;;;;4989312;28;20110;-59
2021/12/16 07:05:53;;;;;;;16.92;6.57;;;;;;;;;;4985236;28;20152;-59
2021/12/16 07:08:22;;;;;;;19.90;6.60;;;;;;;;;;4980124;28;20048;-59
2021/12/16 07:10:49;;;;;;;21.35;7.03;;;;;;;;;;4979936;28;20034;-59
2021/12/16 07:13:28;;;;;;;23.30;6.88;;;;;;;;;;4986562;28;20050;-59
2021/12/16 07:15:56;;;;;;;22.05;6.65;;;;;;;;;;4986556;28;20045;-59
2021/12/16 07:18:21;;;;;;;22.70;6.85;;;;;;;;;;4986981;28;20839;-59
2021/12/16 07:20:52;;;;;;;17.65;6.32;;;;;;;;;;4984710;28;20040;-58
2021/12/16 07:23:18;;;;;;;15.23;5.88;;;;;;;;;;4983900;28;20083;-59
2021/12/16 07:25:48;;;;;;;25.25;6.28;;;;;;;;;;4984191;28;20067;-60
2021/12/16 07:28:21;;;;;;;20.30;6.15;;;;;;;;;;4985091;28;20038;-58
2021/12/16 07:30:48;;;;;;;16.50;6.40;;;;;;;;;;4982209;28;20037;-59
2021/12/16 07:33:21;;;;;;;20.95;7.47;;;;;;;;;;4985304;28;20065;-60
2021/12/16 07:35:46;;;;;;;16.55;6.45;;;;;;;;;;4985753;28;20038;-60
2021/12/16 07:38:12;;;;;;;17.27;6.78;;;;;;;;;;4986901;28;20446;-60
2021/12/16 07:40:59;;;;;;;19.67;6.70;;;;;;;;;;4986993;28;20099;-60
2021/12/16 07:44:10;;;;;;;14.90;6.38;;;;;;;;;;4985784;28;20044;-60
2021/12/16 07:46:14;;;;;;;23.80;6.93;;;;;;;;;;4980567;28;20048;-60
2021/12/16 07:48:42;;;;;;;19.20;6.63;;;;;;;;;;4986754;28;20687;-59
2021/12/16 07:51:10;;;;;;;30.58;6.75;;;;;;;;;;5003153;28;20037;-59
2021/12/16 07:53:41;;;;;;;20.10;7.07;;;;;;;;;;4985014;28;20025;-59
2021/12/16 07:56:09;;;;;;;20.25;7.28;;;;;;;;;;4988179;28;20061;-58
2021/12/16 07:58:35;;;;;;;11.75;5.88;;;;;;;;;;4991066;28;20095;-60
2021/12/16 08:01:00;;;;;;;18.90;6.82;;;;;;;;;;4986944;28;20029;-60
2021/12/16 08:03:34;;;;;;;13.85;7.03;;;;;;;;;;4989572;28;20043;-60
2021/12/16 08:05:59;;;;;;;16.05;6.80;;;;;;;;;;4983579;28;20552;-61
2021/12/16 08:08:25;;;;;;;10.93;5.88;;;;;;;;;;4985506;28;20050;-61
2021/12/16 08:10:51;;;;;;;19.40;6.55;;;;;;;;;;4987072;28;20030;-61
2021/12/16 08:13:20;;;;;;;14.68;6.07;;;;;;;;;;4987368;28;20028;-60
2021/12/16 08:15:50;;;;;;;21.73;6.40;;;;;;;;;;4986699;28;20042;-62
2021/12/16 08:18:19;;;;;;;16.75;6.43;;;;;;;;;;4985598;28;20091;-59
2021/12/16 08:20:47;;;;;;;23.90;6.22;;;;;;;;;;4984796;28;20632;-59
2021/12/16 08:23:14;;;;;;;17.00;6.50;;;;;;;;;;4986658;28;20057;-59
2021/12/16 08:25:42;;;;;;;12.95;6.38;;;;;;;;;;4969873;28;20034;-60
2021/12/16 08:28:10;;;;;;;14.98;5.82;;;;;;;;;;4987554;28;20076;-59
2021/12/16 08:30:39;;;;;;;15.25;6.72;;;;;;;;;;4987755;28;20527;-59
2021/12/16 08:33:09;;;;;;;20.55;6.10;;;;;;;;;;4985975;28;20030;-58
2021/12/16 08:35:40;;;;;;;17.23;6.18;;;;;;;;;;4987143;28;20033;-59
2021/12/16 08:38:14;;;;;;;14.63;5.72;;;;;;;;;;4987298;28;20222;-59
2021/12/16 08:40:41;;;;;;;18.38;5.95;;;;;;;;;;4983945;28;20030;-59
2021/12/16 08:43:12;;;;;;;15.68;7.25;;;;;;;;;;5003964;28;20452;-60
2021/12/16 08:45:43;;;;;;;20.42;6.38;;;;;;;;;;4988087;28;20030;-60
2021/12/16 08:48:11;;;;;;;19.70;6.72;;;;;;;;;;4978226;28;20034;-60
2021/12/16 08:50:39;;;;;;;21.23;7.05;;;;;;;;;;4985755;28;20556;-58
2021/12/16 08:53:07;;;;;;;16.75;6.95;;;;;;;;;;4984440;28;20030;-59
2021/12/16 08:55:38;;;;;;;32.42;6.55;;;;;;;;;;4966513;28;20029;-60
2021/12/16 08:58:06;;;;;;;18.23;5.90;;;;;;;;;;4985020;28;20037;-60
2021/12/16 09:00:35;;;;;;;21.92;5.32;;;;;;;;;;4986262;28;20036;-59
2021/12/16 09:03:07;;;;;;;14.35;6.35;;;;;;;;;;4976031;28;20038;-60
2021/12/16 09:05:35;;;;;;;26.38;6.47;;;;;;;;;;4965346;28;20046;-60
2021/12/16 09:08:03;;;;;;;16.60;6.70;;;;;;;;;;4980736;28;20054;-60
2021/12/16 09:10:48;;;;;;;19.02;6.88;;;;;;;;;;5000625;28;20037;-59
2021/12/16 09:13:17;;;;;;;18.83;6.37;;;;;;;;;;4986721;28;20811;-61
2021/12/16 09:15:54;;;;;;;30.75;6.78;;;;;;;;;;4983644;28;20477;-59
2021/12/16 09:18:26;;;;;;;20.52;6.38;;;;;;;;;;4986993;28;20030;-59
2021/12/16 09:20:53;;;;;;;28.88;7.15;;;;;;;;;;4984153;28;21143;-59
2021/12/16 09:23:18;;;;;;;26.63;6.95;;;;;;;;;;4999810;28;20033;-58
2021/12/16 09:25:47;;;;;;;27.65;8.57;;;;;;;;;;4970231;28;20045;-58
2021/12/16 09:28:15;;;;;;;23.30;7.65;;;;;;;;;;4969971;28;20205;-59
2021/12/16 09:30:45;;;;;;;36.50;7.65;;;;;;;;;;4978137;28;20026;-59
2021/12/16 09:33:22;;;;;;;22.63;7.35;;;;;;;;;;4987539;28;20060;-59
2021/12/16 09:35:50;;;;;;;40.28;8.65;;;;;;;;;;4985084;28;20771;-59
2021/12/16 09:38:19;;;;;;;42.42;8.35;;;;;;;;;;4987202;28;20653;-59
2021/12/16 09:40:52;;;;;;;42.08;8.80;;;;;;;;;;4986885;28;20045;-59
2021/12/16 09:43:22;;;;;;;55.97;9.30;;;;;;;;;;4987767;28;20156;-59
2021/12/16 09:45:48;;;;;;;29.40;8.63;;;;;;;;;;4987767;28;20281;-60
2021/12/16 09:48:14;;;;;;;48.13;8.05;;;;;;;;;;5003259;28;20025;-59
2021/12/16 09:50:39;;;;;;;47.38;7.38;;;;;;;;;;4986287;28;20201;-59
2021/12/16 09:53:09;;;;;;;52.22;8.10;;;;;;;;;;4986446;28;20946;-59
2021/12/16 09:55:34;;;;;;;42.22;7.75;;;;;;;;;;4969560;28;20501;-59
2021/12/16 09:58:03;;;;;;;40.42;8.57;;;;;;;;;;4981193;28;20032;-60
2021/12/16 10:00:33;;;;;;;49.92;7.88;;;;;;;;;;4970661;28;20029;-60
2021/12/16 10:03:02;;;;;;;34.03;7.28;;;;;;;;;;4984895;28;20044;-59
2021/12/16 10:05:31;;;;;;;38.63;7.78;;;;;;;;;;4984910;28;20037;-59
2021/12/16 10:07:58;;;;;;;39.42;7.57;;;;;;;;;;4984145;28;20682;-60
2021/12/16 10:10:26;;;;;;;37.03;7.40;;;;;;;;;;4980912;28;20045;-59
2021/12/16 10:12:55;;;;;;;44.45;6.57;;;;;;;;;;4984300;28;20036;-59
2021/12/16 10:18:08;;;;;;;41.00;6.97;;;;;;;;;;4982181;28;20099;-59
2021/12/16 10:20:36;;;;;;;49.25;7.32;;;;;;;;;;4981309;28;20724;-59
2021/12/16 10:23:06;;;;;;;56.58;7.28;;;;;;;;;;4977924;28;20454;-59
2021/12/16 10:25:36;;;;;;;49.40;6.57;;;;;;;;;;4985409;28;20057;-59
2021/12/16 10:28:17;;;;;;;36.75;7.07;;;;;;;;;;4984139;28;20129;-59
2021/12/16 10:30:54;;;;;;;45.05;6.80;;;;;;;;;;4967579;28;20030;-59
2021/12/16 10:33:27;;;;;;;41.78;7.40;;;;;;;;;;4986386;28;20761;-59
2021/12/16 10:36:10;;;;;;;23.38;7.80;;;;;;;;;;4982952;28;20026;-59
2021/12/16 10:38:37;;;;;;;39.95;7.18;;;;;;;;;;4984582;28;20036;-60
2021/12/16 10:41:09;;;;;;;24.15;6.70;;;;;;;;;;4985769;28;20026;-60
2021/12/16 10:43:40;;;;;;;41.10;8.80;;;;;;;;;;4984393;28;20045;-59
2021/12/16 10:46:08;;;;;;;26.75;6.63;;;;;;;;;;4998185;28;20061;-60
2021/12/16 10:48:39;;;;;;;71.00;7.47;;;;;;;;;;4982818;28;20022;-60
2021/12/16 10:51:07;;;;;;;48.72;7.38;;;;;;;;;;4981350;28;20033;-60
2021/12/16 10:53:46;;;;;;;25.83;7.18;;;;;;;;;;4984946;28;20108;-59
2021/12/16 10:56:18;;;;;;;45.83;6.60;;;;;;;;;;4979962;28;20053;-59
2021/12/16 10:58:51;;;;;;;74.15;7.53;;;;;;;;;;4976763;28;20096;-57
2021/12/16 11:01:35;;;;;;;61.33;7.32;;;;;;;;;;4983693;28;20034;-59
2021/12/16 11:04:08;;;;;;;49.37;7.07;;;;;;;;;;4984223;28;20513;-58
2021/12/16 11:06:38;;;;;;;50.55;7.72;;;;;;;;;;4980635;28;20214;-60
2021/12/16 11:09:26;;;;;;;52.53;9.20;;;;;;;;;;4984107;28;20041;-59
2021/12/16 11:12:10;;;;;;;31.70;7.47;;;;;;;;;;4976536;28;20648;-59
2021/12/16 11:14:38;;;;;;;37.50;7.90;;;;;;;;;;4986199;28;20061;-59
2021/12/16 11:17:08;;;;;;;29.50;7.53;;;;;;;;;;4960583;28;20037;-59
2021/12/16 11:19:42;;;;;;;52.35;7.90;;;;;;;;;;4988163;28;20033;-59
2021/12/16 11:22:10;;;;;;;44.70;7.75;;;;;;;;;;4983467;28;20026;-59
2021/12/16 11:24:38;;;;;;;44.60;6.93;;;;;;;;;;4986741;28;20070;-59
2021/12/16 11:27:25;;;;;;;49.60;8.38;;;;;;;;;;5005331;28;20032;-58
2021/12/16 11:29:56;;;;;;;30.08;7.40;;;;;;;;;;4989203;28;20045;-58
2021/12/16 11:32:54;;;;;;;25.38;8.35;;;;;;;;;;4987686;28;20115;-60
2021/12/16 11:35:32;;;;;;;51.53;7.80;;;;;;;;;;4963195;28;20049;-59
2021/12/16 11:38:03;;;;;;;55.55;8.40;;;;;;;;;;4986074;28;20037;-59
2021/12/16 11:40:47;;;;;;;35.58;7.85;;;;;;;;;;4983089;28;20026;-59
2021/12/16 11:43:15;;;;;;;28.90;7.65;;;;;;;;;;5000704;28;20038;-59
2021/12/16 11:45:45;;;;;;;55.10;8.65;;;;;;;;;;4984941;28;20026;-59
2021/12/16 11:48:25;;;;;;;42.17;8.32;;;;;;;;;;4987975;28;20104;-59
2021/12/16 11:51:02;;;;;;;39.50;8.38;;;;;;;;;;4982809;28;20484;-59
2021/12/16 11:53:36;;;;;;;22.50;8.13;;;;;;;;;;4984527;28;20084;-59
2021/12/16 11:56:06;;;;;;;52.97;9.40;;;;;;;;;;4975484;28;20030;-60
2021/12/16 11:58:34;;;;;;;28.95;8.75;;;;;;;;;;5000675;28;20472;-60
2021/12/16 12:01:09;;;;;;;29.45;8.25;;;;;;;;;;4969112;28;20132;-59
2021/12/16 12:03:37;;;;;;;26.45;8.48;;;;;;;;;;4987273;28;20033;-59
2021/12/16 12:06:05;;;;;;;29.75;8.18;;;;;;;;;;4985682;28;20049;-59
2021/12/16 12:08:33;;;;;;;28.20;8.82;;;;;;;;;;4967229;28;20050;-60
2021/12/16 12:11:06;;;;;;;23.35;7.80;;;;;;;;;;4983768;28;20034;-59
2021/12/16 12:13:36;;;;;;;24.98;8.13;;;;;;;;;;4989078;28;20026;-59
2021/12/16 12:16:05;;;;;;;37.65;8.73;;;;;;;;;;4984505;28;20029;-59
2021/12/16 12:18:44;;;;;;;16.35;7.95;;;;;;;;;;4986262;28;20041;-59
2021/12/16 12:21:14;;;;;;;23.42;8.18;;;;;;;;;;4986322;28;20606;-58
2021/12/16 12:23:42;;;;;;;36.97;9.32;;;;;;;;;;4996873;28;20033;-59
2021/12/16 12:26:17;;;;;;;22.88;9.23;;;;;;;;;;4987655;28;20034;-59
2021/12/16 12:28:49;;;;;;;34.03;8.98;;;;;;;;;;4986707;28;20029;-59
2021/12/16 12:31:17;;;;;;;29.00;8.75;;;;;;;;;;4986896;28;20455;-59
2021/12/16 12:33:47;;;;;;;22.40;8.85;;;;;;;;;;4985840;28;20021;-59
2021/12/16 12:36:14;;;;;;;32.72;9.40;;;;;;;;;;4999927;28;22212;-59
2021/12/16 12:38:44;;;;;;;23.00;8.43;;;;;;;;;;4985291;28;20025;-59
2021/12/16 12:41:13;;;;;;;25.08;8.25;;;;;;;;;;4983677;28;20100;-59
2021/12/16 12:43:43;;;;;;;32.17;9.45;;;;;;;;;;4982947;28;20033;-58
2021/12/16 12:46:10;;;;;;;36.30;9.07;;;;;;;;;;4984043;28;20042;-58
2021/12/16 12:48:42;;;;;;;22.33;9.27;;;;;;;;;;4985080;28;20050;-59
2021/12/16 12:51:10;;;;;;;21.98;8.50;;;;;;;;;;4983890;28;20030;-59
2021/12/16 12:53:38;;;;;;;36.58;10.10;;;;;;;;;;4982711;28;20036;-60
2021/12/16 12:56:09;;;;;;;23.98;9.50;;;;;;;;;;4997059;28;20033;-59
2021/12/16 12:58:48;;;;;;;24.85;10.32;;;;;;;;;;4980640;28;20070;-59
2021/12/16 13:01:14;;;;;;;33.22;10.15;;;;;;;;;;4974684;28;20050;-60
2021/12/16 13:03:40;;;;;;;28.98;10.30;;;;;;;;;;4978128;28;20148;-60
2021/12/16 13:06:11;;;;;;;23.77;9.63;;;;;;;;;;4992026;28;20042;-59
2021/12/16 13:08:46;;;;;;;29.58;9.93;;;;;;;;;;4977074;28;20108;-59
2021/12/16 13:11:16;;;;;;;28.58;9.25;;;;;;;;;;4979240;28;20038;-59
2021/12/16 13:13:57;;;;;;;31.05;8.88;;;;;;;;;;4958806;28;20465;-59
2021/12/16 13:17:21;;;;;;;33.83;10.52;;;;;;;;;;4976198;28;20091;-59
2021/12/16 13:28:06;;;;;;;27.52;9.88;;;;;;;;;;4978029;28;20196;-59
2021/12/16 13:30:50;;;;;;;26.27;8.90;;;;;;;;;;4959856;28;20858;-59
2021/12/16 13:33:23;;;;;;;30.70;9.30;;;;;;;;;;4980588;28;20034;-59
2021/12/16 13:36:01;;;;;;;25.90;8.32;;;;;;;;;;4977361;28;20038;-59
2021/12/16 13:38:42;;;;;;;20.88;8.68;;;;;;;;;;4976730;28;20564;-59
2021/12/16 13:41:10;;;;;;;21.27;7.78;;;;;;;;;;4985462;28;20037;-59
2021/12/16 13:43:39;;;;;;;18.75;6.72;;;;;;;;;;4973434;28;20038;-59
2021/12/16 13:46:34;;;;;;;19.55;7.10;;;;;;;;;;4974340;28;20037;-59
2021/12/16 14:03:25;;;;;;;19.80;7.03;;;;;;;;;;4975942;28;20075;-60
2021/12/16 14:06:19;;;;;;;24.58;7.10;;;;;;;;;;4975832;28;20041;-59
2021/12/16 14:08:43;;;;;;;26.20;7.32;;;;;;;;;;4971504;28;20091;-60
2021/12/16 14:11:49;;;;;;;44.45;7.97;;;;;;;;;;4948887;28;20181;-59
2021/12/16 14:14:26;;;;;;;34.40;7.45;;;;;;;;;;4973615;28;20029;-60
2021/12/16 14:17:09;;;;;;;33.13;8.65;;;;;;;;;;4971276;28;20048;-59
2021/12/16 14:25:15;;;;;;;27.30;7.82;;;;;;;;;;4974834;28;20041;-59
2021/12/16 14:41:41;;;;;;;23.70;6.90;;;;;;;;;;4976532;28;20030;-59
2021/12/16 14:47:15;;;;;;;30.70;7.68;;;;;;;;;;4971976;28;20524;-60
2021/12/16 14:49:37;;;;;;;40.70;8.63;;;;;;;;;;4973855;28;20128;-59
2021/12/16 14:52:12;;;;;;;30.90;7.88;;;;;;;;;;4973550;28;20030;-59
2021/12/16 14:55:11;;;;;;;33.95;8.65;;;;;;;;;;4966223;28;20521;-60
2021/12/16 14:57:43;;;;;;;40.35;9.02;;;;;;;;;;4982815;28;20056;-60
2021/12/16 15:00:14;;;;;;;40.38;9.35;;;;;;;;;;4978373;28;20037;-59
2021/12/16 15:02:49;;;;;;;35.08;8.05;;;;;;;;;;4976681;28;20029;-59
2021/12/16 15:05:47;;;;;;;34.45;8.45;;;;;;;;;;4972115;28;20045;-59
2021/12/16 15:08:23;;;;;;;33.10;8.43;;;;;;;;;;4953886;28;20057;-59
2021/12/16 15:10:48;;;;;;;38.05;7.80;;;;;;;;;;4974181;28;20026;-59
2021/12/16 15:13:30;;;;;;;36.88;9.20;;;;;;;;;;4980725;28;20026;-59
2021/12/16 15:35:50;;;;;;;47.58;9.57;;;;;;;;;;4978327;28;20068;-59
2021/12/16 15:43:09;;;;;;;33.22;9.73;;;;;;;;;;4977623;28;20029;-59
2021/12/16 15:45:36;;;;;;;27.77;8.25;;;;;;;;;;4978937;28;20185;-59
2021/12/16 15:48:06;;;;;;;31.20;9.15;;;;;;;;;;4980999;28;20018;-59
2021/12/16 15:50:34;;;;;;;39.05;9.25;;;;;;;;;;4976680;28;20038;-59
2021/12/16 15:53:07;;;;;;;35.42;8.75;;;;;;;;;;4983001;28;20030;-60
2021/12/16 15:55:39;;;;;;;29.33;9.32;;;;;;;;;;4984480;28;20972;-59
2021/12/16 15:58:10;;;;;;;40.00;9.82;;;;;;;;;;4972200;28;20534;-59
2021/12/16 16:00:38;;;;;;;37.42;9.45;;;;;;;;;;4976885;28;20152;-59
2021/12/16 16:03:08;;;;;;;43.60;9.98;;;;;;;;;;4973054;28;20037;-58
2021/12/16 16:05:35;;;;;;;43.63;11.30;;;;;;;;;;4962073;28;20045;-59
2021/12/16 16:08:02;;;;;;;49.00;11.07;;;;;;;;;;4975548;28;20072;-59
2021/12/16 16:10:30;;;;;;;42.15;10.38;;;;;;;;;;4959822;28;20033;-59
2021/12/16 16:13:09;;;;;;;42.85;10.07;;;;;;;;;;4977943;28;20030;-59
2021/12/16 16:15:39;;;;;;;38.15;10.50;;;;;;;;;;4981194;28;20496;-60
2021/12/16 16:18:15;;;;;;;59.30;12.13;;;;;;;;;;4976919;28;20033;-60
2021/12/16 16:20:47;;;;;;;46.83;12.35;;;;;;;;;;4978704;28;20037;-59
2021/12/16 16:23:16;;;;;;;61.75;11.00;;;;;;;;;;4978724;28;20038;-60
2021/12/16 16:25:47;;;;;;;57.50;11.38;;;;;;;;;;4992506;28;20034;-60
2021/12/16 16:28:14;;;;;;;57.70;11.82;;;;;;;;;;4982492;28;20029;-59
2021/12/16 16:30:45;;;;;;;42.13;10.77;;;;;;;;;;5001830;28;20738;-59
2021/12/16 16:33:20;;;;;;;40.25;12.13;;;;;;;;;;4979367;28;20049;-59
2021/12/16 16:35:48;;;;;;;45.47;10.73;;;;;;;;;;4971840;28;20038;-59
2021/12/16 16:38:15;;;;;;;44.45;10.38;;;;;;;;;;4987225;28;20040;-60
2021/12/16 16:40:42;;;;;;;39.08;11.25;;;;;;;;;;4983663;28;20124;-58
2021/12/16 16:43:34;;;;;;;41.38;10.43;;;;;;;;;;4983940;28;20026;-58
2021/12/16 16:46:05;;;;;;;41.63;11.35;;;;;;;;;;4983136;28;20167;-59
2021/12/16 16:52:10;;;;;;;46.38;11.60;;;;;;;;;;4981486;28;20757;-59
2021/12/16 16:54:43;;;;;;;54.40;11.90;;;;;;;;;;4997620;28;20133;-59
2021/12/16 16:57:15;;;;;;;62.92;12.30;;;;;;;;;;4984524;28;20042;-59
2021/12/16 16:59:44;;;;;;;64.13;12.02;;;;;;;;;;4983219;28;20080;-58
2021/12/16 17:02:33;;;;;;;68.00;13.13;;;;;;;;;;4976686;28;20032;-58
2021/12/16 17:04:58;;;;;;;75.18;13.05;;;;;;;;;;4977839;28;20037;-58
2021/12/16 17:07:27;;;;;;;53.17;11.43;;;;;;;;;;4999220;28;20042;-60
2021/12/16 17:09:52;;;;;;;64.40;13.32;;;;;;;;;;4977598;28;20395;-58
2021/12/16 17:12:20;;;;;;;51.58;12.55;;;;;;;;;;4985115;28;20122;-59
2021/12/16 17:15:10;;;;;;;66.55;12.05;;;;;;;;;;4982874;28;22043;-58
2021/12/16 17:17:41;;;;;;;60.28;13.07;;;;;;;;;;4984309;28;20097;-58
2021/12/16 17:23:42;;;;;;;56.08;13.30;;;;;;;;;;4984921;28;20098;-59
2021/12/16 17:26:31;;;;;;;64.70;13.65;;;;;;;;;;4985510;28;20025;-60
2021/12/16 17:29:18;;;;;;;61.28;12.90;;;;;;;;;;4986165;28;20031;-59
2021/12/16 17:31:53;;;;;;;86.50;14.80;;;;;;;;;;4986853;28;20038;-59
2021/12/16 17:34:21;;;;;;;71.03;14.23;;;;;;;;;;4982734;28;20034;-59
2021/12/16 17:36:54;;;;;;;56.08;12.32;;;;;;;;;;4985907;28;20560;-59
2021/12/16 17:39:24;;;;;;;68.13;14.55;;;;;;;;;;4985989;28;20030;-59
2021/12/16 17:41:59;;;;;;;56.65;12.60;;;;;;;;;;4979822;28;20038;-58
2021/12/16 17:44:27;;;;;;;95.40;14.38;;;;;;;;;;4969249;28;20481;-59
2021/12/16 17:46:55;;;;;;;78.95;14.55;;;;;;;;;;4986661;28;20160;-60
2021/12/16 17:49:23;;;;;;;92.22;15.38;;;;;;;;;;4980715;28;20048;-58
2021/12/16 17:51:56;;;;;;;67.30;15.15;;;;;;;;;;4983650;28;20026;-59
2021/12/16 17:54:24;;;;;;;63.60;14.70;;;;;;;;;;4985336;28;20104;-58
2021/12/16 17:56:54;;;;;;;69.72;15.32;;;;;;;;;;4974869;28;20659;-58
2021/12/16 17:59:21;;;;;;;68.25;14.27;;;;;;;;;;4981928;28;20037;-58
2021/12/16 18:01:50;;;;;;;70.80;15.00;;;;;;;;;;4982359;28;20025;-59
2021/12/16 18:04:19;;;;;;;84.72;14.55;;;;;;;;;;4981524;28;20034;-57
2021/12/16 18:07:01;;;;;;;81.22;14.68;;;;;;;;;;4986686;28;20029;-60
2021/12/16 18:09:31;;;;;;;115.53;15.57;;;;;;;;;;4964782;28;20173;-58
2021/12/16 18:12:21;;;;;;;92.72;15.10;;;;;;;;;;4965209;28;20145;-58
2021/12/16 18:14:53;;;;;;;62.90;14.18;;;;;;;;;;4959050;28;20414;-60
2021/12/16 18:17:27;;;;;;;142.75;16.38;;;;;;;;;;4961401;28;20031;-59
2021/12/16 18:19:58;;;;;;;89.30;15.63;;;;;;;;;;4980771;28;20034;-58
2021/12/16 18:22:36;;;;;;;109.13;16.38;;;;;;;;;;4964465;28;20636;-60
2021/12/16 18:25:08;;;;;;;81.32;13.73;;;;;;;;;;4973650;28;20145;-59
2021/12/16 18:27:41;;;;;;;66.03;16.75;;;;;;;;;;4964548;28;20073;-59
2021/12/16 18:30:11;;;;;;;71.32;16.33;;;;;;;;;;4965089;28;20026;-59
2021/12/16 18:32:41;;;;;;;113.38;17.70;;;;;;;;;;4963245;28;20658;-58
2021/12/16 18:35:13;;;;;;;88.75;14.68;;;;;;;;;;4955527;28;20505;-59
2021/12/16 18:37:50;;;;;;;79.97;15.00;;;;;;;;;;4964794;28;20042;-59
2021/12/16 18:43:57;;;;;;;91.38;14.70;;;;;;;;;;4965385;28;20106;-59
2021/12/16 18:46:25;;;;;;;76.50;13.80;;;;;;;;;;4965326;28;20616;-59
2021/12/16 18:49:03;;;;;;;73.32;12.68;;;;;;;;;;4965669;28;20292;-60
2021/12/16 18:52:09;;;;;;;101.90;14.75;;;;;;;;;;4964625;28;20035;-60
2021/12/16 18:54:31;;;;;;;93.07;13.35;;;;;;;;;;4965689;28;20129;-59
2021/12/16 18:57:02;;;;;;;55.55;13.75;;;;;;;;;;4964763;28;20042;-59
2021/12/16 18:59:28;;;;;;;85.78;14.70;;;;;;;;;;4947453;28;20030;-60
2021/12/16 19:01:56;;;;;;;90.65;14.75;;;;;;;;;;4962612;28;20053;-60
2021/12/16 19:04:26;;;;;;;89.05;15.48;;;;;;;;;;4960352;28;20038;-58
2021/12/16 19:06:54;;;;;;;74.72;13.45;;;;;;;;;;4963478;28;20029;-60
2021/12/16 19:13:18;;;;;;;51.22;11.30;;;;;;;;;;4964167;28;20052;-58